资源动态
标题 发布时间
CNKI知网研学平台再次开通试用 (2021年9月29日-2021年12月31日) [2021-09-30]
国泰安(CSMAR) 中国上市公司机构投资者研究数据库开通试用(2021年9月29日- 2021年1... [2021-09-29]
籍合网再次开通试用 (2021年9月26日- 2021年11月30日) [2021-09-26]
AITEXTS智能文本分析系统开通试用 (2021年9月24日-2022年4月18日) [2021-09-24]
国泰安(CSMAR) 中国保险行业数据库开通试用(2021年9月24日- 2021年10月23日) [2021-09-24]
爱如生中国近代报刊库•要刊编1-3辑开通试用 (2021年9月17日-2021年11月30日) [2021-09-17]
爱如生晚清民国大报库开通试用 (2021年9月17日-2021年11月30日) [2021-09-17]
爱学术Kluwer Law法律电子书开通试用 (2021年9月16日-2021年12月31日) [2021-09-16]
Oxford Dictionary of National Biography (ODNB)开通试用... [2021-09-10]
Maruzen三田文学数据库开通试用 (2021年9月6日-2021年10月5日) [2021-09-07]
Routledge Encyclopedia of Philosophy( Routledge哲学百... [2021-09-02]
ProQuest One Literature 外国文学资源数据库开通试用 (2021年8月30日-... [2021-08-31]
Human Kinetics 电子期刊开通试用 (2021年8月25日-2021年10月25日) [2021-08-26]
Oxford Research Encyclopedias(ORE)开通试用 (2021年8月23日... [2021-08-24]
中国工程科技知识中心知领系列数据库开通使用 [2021-08-20]
Cairn法语电子书开通试用(2021年8月20日-2021年10月18日) [2021-08-20]
ProQuest国际研究专题资源汇编开通试用 (2021年5月21日-2021年7月31日)(试用延... [2021-08-18]
Statista数据库再次开通试用 (2021年8月16日-2021年9月15日) [2021-08-17]
ProQuest历史报纸数据库再次开通试用(2021年7月31日–2021年9月30日) [2021-08-16]
合享incoPat全球专利文献数据库正式订购 [2021-07-06]
智慧芽(PatSnap)全球专利检索分析数据库正式订购 [2021-07-06]
ProQuest History Vault(ProQuest原始档案数据库)正式订购 [2021-07-06]
ProQuest 人文社科资源数据库正式订购 [2021-07-06]
国泰安(CSMAR) 因子系列-已实现指标数据库再次开通试用(2021年7月1日- 2021年7月3... [2021-07-02]
公图艺术资源O2O服务平台再次开通试用 (2020年9月15日-2021年6月30日)(试用延长至2... [2021-06-30]
北大法宝《党内法规》专题库开通试用 (2021年6月25日-2021年9月30日) [2021-06-28]
中国近代影像资料库开通试用 (2021年6月25日-2021年9月24日) [2021-06-28]
Linguistic Data Consortium(语言数据联盟)开通使用 [2021-06-25]
Nurimedia韩国历史文化研究在线再次开通试用 (2021年6月24日-2021年7月10日) [2021-06-24]
Nurimedia韩国学术期刊数据库再次开通试用 (2021年6月24日-2021年7月10日) [2021-06-24]

页面